createdAt,value
2022-08-14T00:02:31.494Z,96865.00
2022-08-14T00:07:34.667Z,96847.00
2022-08-14T00:12:56.608Z,96850.00
2022-08-14T00:17:58.344Z,96843.00
2022-08-14T00:23:14.659Z,96840.00
2022-08-14T00:28:21.219Z,96843.00
2022-08-14T00:33:22.126Z,96832.00
2022-08-14T00:38:52.921Z,96837.00
2022-08-14T00:43:53.917Z,96825.00
2022-08-14T00:48:58.342Z,96836.00
2022-08-14T00:53:59.887Z,96834.00
2022-08-14T00:59:01.227Z,96835.00
2022-08-14T01:04:05.571Z,96834.00
2022-08-14T01:09:06.870Z,96838.00
2022-08-14T01:14:25.670Z,96819.00
2022-08-14T01:19:47.992Z,96785.00
2022-08-14T01:24:51.118Z,96768.00
2022-08-14T01:30:04.329Z,96752.00
2022-08-14T01:35:18.631Z,96745.00
2022-08-14T01:40:49.606Z,96746.00
2022-08-14T01:45:57.791Z,96745.00
2022-08-14T01:51:19.375Z,96750.00
2022-08-14T01:56:40.582Z,96737.00
2022-08-14T02:01:57.872Z,96744.00
2022-08-14T02:07:02.055Z,96728.00
2022-08-14T02:12:09.308Z,96728.00
2022-08-14T02:17:12.731Z,96732.00
2022-08-14T02:22:32.808Z,96715.00
2022-08-14T02:28:25.513Z,96714.00
2022-08-14T02:34:14.715Z,96721.00
2022-08-14T02:39:22.991Z,96718.00
2022-08-14T02:44:29.715Z,96725.00
2022-08-14T02:49:34.393Z,96736.00
2022-08-14T02:54:35.416Z,96727.00
2022-08-14T02:59:38.572Z,96713.00
2022-08-14T03:04:40.061Z,96711.00
2022-08-14T03:10:24.379Z,96715.00
2022-08-14T03:15:28.401Z,96708.00
2022-08-14T03:20:29.440Z,96703.00
2022-08-14T03:25:32.704Z,96694.00
2022-08-14T03:30:39.014Z,96696.00
2022-08-14T03:36:05.331Z,96691.00
2022-08-14T03:42:35.689Z,96691.00
2022-08-14T03:47:50.468Z,96681.00
2022-08-14T03:53:00.959Z,96674.00
2022-08-14T03:58:02.245Z,96677.00
2022-08-14T04:03:07.468Z,96674.00
2022-08-14T04:08:22.864Z,96671.00
2022-08-14T04:13:33.975Z,96669.00
2022-08-14T04:18:39.091Z,96670.00
2022-08-14T04:23:41.350Z,96665.00
2022-08-14T04:29:07.677Z,96666.00
2022-08-14T04:34:24.240Z,96658.00
2022-08-14T04:39:47.463Z,96663.00
2022-08-14T04:45:00.797Z,96660.00
2022-08-14T04:50:04.499Z,96655.00
2022-08-14T04:55:05.884Z,96653.00
2022-08-14T05:00:16.208Z,96658.00
2022-08-14T05:05:20.333Z,96656.00
2022-08-14T05:10:25.474Z,96666.00
2022-08-14T05:15:28.855Z,96647.00
2022-08-14T05:21:59.454Z,96637.00
2022-08-14T05:27:02.553Z,96644.00
2022-08-14T05:32:06.712Z,96636.00
2022-08-14T05:37:07.665Z,96639.00
2022-08-14T05:42:09.848Z,96647.00
2022-08-14T05:47:23.584Z,96643.00
2022-08-14T05:52:38.658Z,96638.00
2022-08-14T05:57:59.399Z,96644.00
2022-08-14T06:03:06.825Z,96641.00
2022-08-14T06:09:10.227Z,96635.00
2022-08-14T06:14:12.500Z,96637.00
2022-08-14T06:19:23.354Z,96624.00
2022-08-14T06:24:24.855Z,96623.00
2022-08-14T06:29:27.095Z,96613.00
2022-08-14T06:35:03.661Z,96610.00
2022-08-14T06:40:25.352Z,96599.00
2022-08-14T06:45:30.474Z,96608.00
2022-08-14T06:50:31.374Z,96596.00
2022-08-14T06:55:37.072Z,96594.00
2022-08-14T07:01:01.729Z,96582.00
2022-08-14T07:06:03.058Z,96589.00
2022-08-14T07:11:13.250Z,96590.00
2022-08-14T07:16:14.127Z,96581.00
2022-08-14T07:21:20.101Z,96583.00
2022-08-14T07:26:20.948Z,96576.00
2022-08-14T07:31:23.085Z,96576.00
2022-08-14T07:36:27.036Z,96574.00
2022-08-14T07:41:35.685Z,96581.00
2022-08-14T07:46:37.334Z,96587.00
2022-08-14T07:51:41.315Z,96586.00
2022-08-14T07:56:47.029Z,96592.00
2022-08-14T08:01:52.768Z,96590.00
2022-08-14T08:06:54.280Z,96581.00
2022-08-14T08:11:57.352Z,96586.00
2022-08-14T08:16:59.626Z,96581.00
2022-08-14T08:22:02.942Z,96587.00
2022-08-14T08:27:16.711Z,96579.00
2022-08-14T08:32:18.774Z,96575.00
2022-08-14T08:37:20.268Z,96571.00
2022-08-14T08:42:31.773Z,96575.00
2022-08-14T08:47:40.177Z,96580.00
2022-08-14T08:52:52.192Z,96558.00
2022-08-14T08:57:54.860Z,96573.00
2022-08-14T09:03:11.273Z,96565.00
2022-08-14T09:08:30.424Z,96556.00
2022-08-14T09:13:33.913Z,96562.00
2022-08-14T09:18:35.263Z,96555.00
2022-08-14T09:24:28.504Z,96560.00
2022-08-14T09:29:33.883Z,96564.00
2022-08-14T09:37:36.753Z,96547.00
2022-08-14T09:43:00.608Z,96538.00
2022-08-14T09:48:01.873Z,96542.00
2022-08-14T09:53:05.904Z,96534.00
2022-08-14T09:58:23.175Z,96537.00
2022-08-14T10:03:33.065Z,96524.00
2022-08-14T10:10:27.720Z,96529.00
2022-08-14T10:15:45.317Z,96530.00
2022-08-14T10:20:57.900Z,96533.00
2022-08-14T10:26:05.196Z,96531.00
2022-08-14T10:31:26.956Z,96539.00
2022-08-14T10:36:45.685Z,96531.00
2022-08-14T10:42:02.591Z,96520.00
2022-08-14T10:47:39.281Z,96508.00
2022-08-14T10:53:08.067Z,96474.00
2022-08-14T10:58:10.927Z,96462.00
2022-08-14T11:03:26.463Z,96446.00
2022-08-14T11:08:32.900Z,96461.00
2022-08-14T11:13:37.540Z,96443.00
2022-08-14T11:18:40.329Z,96449.00
2022-08-14T11:23:45.114Z,96434.00
2022-08-14T11:28:49.916Z,96428.00
2022-08-14T11:33:56.996Z,96432.00
2022-08-14T11:38:58.062Z,96432.00
2022-08-14T11:43:59.030Z,96435.00
2022-08-14T11:49:03.945Z,96425.00
2022-08-14T11:54:08.190Z,96427.00
2022-08-14T11:59:26.374Z,96417.00
2022-08-14T12:04:34.485Z,96417.00
2022-08-14T12:09:38.079Z,96406.00
2022-08-14T12:14:57.276Z,96408.00
2022-08-14T12:20:05.049Z,96394.00
2022-08-14T12:25:11.611Z,96403.00
2022-08-14T12:30:14.613Z,96388.00
2022-08-14T12:35:25.191Z,96389.00
2022-08-14T12:40:28.215Z,96376.00
2022-08-14T12:45:33.150Z,96367.00
2022-08-14T12:50:39.362Z,96367.00
2022-08-14T12:56:21.790Z,96351.00
2022-08-14T13:02:00.301Z,96345.00
2022-08-14T13:07:09.987Z,96332.00
2022-08-14T13:12:32.661Z,96314.00
2022-08-14T13:17:47.596Z,96323.00
2022-08-14T13:22:54.123Z,96324.00
2022-08-14T13:27:59.191Z,96315.00
2022-08-14T13:33:01.183Z,96313.00
2022-08-14T13:38:02.584Z,96299.00
2022-08-14T13:43:05.415Z,96311.00
2022-08-14T13:48:06.271Z,96283.00
2022-08-14T13:53:12.672Z,96299.00
2022-08-14T13:58:34.058Z,96293.00
2022-08-14T14:03:38.611Z,96278.00
2022-08-14T14:08:47.868Z,96273.00
2022-08-14T14:13:55.482Z,96275.00
2022-08-14T14:19:06.701Z,96263.00
2022-08-14T14:24:14.865Z,96258.00
2022-08-14T14:29:26.210Z,96270.00
2022-08-14T14:34:30.813Z,96257.00
2022-08-14T14:39:37.665Z,96249.00
2022-08-14T14:45:54.825Z,96251.00
2022-08-14T14:51:00.997Z,96241.00
2022-08-14T14:56:49.987Z,96241.00
2022-08-14T15:01:58.681Z,96242.00
2022-08-14T15:06:59.904Z,96247.00
2022-08-14T15:12:02.093Z,96234.00
2022-08-14T15:17:17.943Z,96231.00
2022-08-14T15:22:20.066Z,96221.00
2022-08-14T15:27:26.534Z,96222.00
2022-08-14T15:32:29.137Z,96222.00
2022-08-14T15:37:42.432Z,96221.00
2022-08-14T15:42:45.427Z,96225.00
2022-08-14T15:47:46.292Z,96223.00
2022-08-14T15:52:52.167Z,96213.00
2022-08-14T15:58:03.111Z,96217.00
2022-08-14T16:03:10.840Z,96215.00
2022-08-14T16:08:24.348Z,96213.00
2022-08-14T16:13:41.261Z,96201.00
2022-08-14T16:18:43.834Z,96205.00
2022-08-14T16:23:46.070Z,96190.00
2022-08-14T16:29:04.863Z,96195.00
2022-08-14T16:34:44.434Z,96192.00
2022-08-14T16:39:48.816Z,96184.00
2022-08-14T16:44:51.611Z,96187.00
2022-08-14T16:50:04.562Z,96181.00
2022-08-14T16:55:11.842Z,96176.00
2022-08-14T17:00:43.600Z,96180.00
2022-08-14T17:05:46.960Z,96171.00
2022-08-14T17:11:10.581Z,96167.00
2022-08-14T17:16:25.280Z,96167.00
2022-08-14T17:21:41.219Z,96155.00
2022-08-14T17:26:45.545Z,96152.00
2022-08-14T17:32:02.244Z,96153.00
2022-08-14T17:37:03.670Z,96147.00
2022-08-14T17:42:13.398Z,96144.00
2022-08-14T17:47:18.189Z,96145.00
2022-08-14T17:52:36.017Z,96137.00
2022-08-14T17:57:42.552Z,96142.00
2022-08-14T18:02:51.189Z,96141.00
2022-08-14T18:08:31.123Z,96148.00
2022-08-14T18:13:51.204Z,96145.00
2022-08-14T18:18:54.138Z,96145.00
2022-08-14T18:23:55.685Z,96137.00
2022-08-14T18:28:59.396Z,96135.00
2022-08-14T18:34:31.016Z,96136.00
2022-08-14T18:40:02.791Z,96136.00
2022-08-14T18:45:15.358Z,96141.00
2022-08-14T18:50:26.423Z,96142.00
2022-08-14T18:55:53.433Z,96145.00
2022-08-14T19:00:58.774Z,96154.00
2022-08-14T19:06:05.185Z,96150.00
2022-08-14T19:11:44.258Z,96145.00
2022-08-14T19:16:48.338Z,96164.00
2022-08-14T19:21:56.057Z,96168.00
2022-08-14T19:27:22.966Z,96169.00
2022-08-14T19:32:40.484Z,96159.00
2022-08-14T19:37:54.635Z,96160.00
2022-08-14T19:42:58.326Z,96166.00
2022-08-14T19:48:03.867Z,96158.00
2022-08-14T19:53:12.061Z,96155.00
2022-08-14T19:58:26.036Z,96169.00
2022-08-14T20:04:00.469Z,96163.00
2022-08-14T20:11:04.010Z,96164.00
2022-08-14T20:16:20.943Z,96165.00
2022-08-14T20:21:36.463Z,96170.00
2022-08-14T20:27:21.773Z,96173.00
2022-08-14T20:32:31.950Z,96162.00
2022-08-14T20:37:36.062Z,96162.00
2022-08-14T20:42:55.598Z,96152.00
2022-08-14T20:48:01.875Z,96163.00
2022-08-14T20:56:41.718Z,96154.00
2022-08-14T21:01:45.133Z,96144.00
2022-08-14T21:07:23.161Z,96149.00
2022-08-14T21:12:34.379Z,96151.00
2022-08-14T21:17:37.589Z,96147.00
2022-08-14T21:22:42.773Z,96140.00
2022-08-14T21:27:56.725Z,96139.00
2022-08-14T21:32:58.952Z,96133.00
2022-08-14T21:38:01.005Z,96136.00
2022-08-14T21:43:01.856Z,96132.00
2022-08-14T21:48:10.540Z,96138.00
2022-08-14T21:53:13.714Z,96141.00
2022-08-14T21:58:52.254Z,96143.00
2022-08-14T22:03:59.274Z,96135.00
2022-08-14T22:09:00.989Z,96142.00
2022-08-14T22:14:25.219Z,96145.00
2022-08-14T22:19:34.693Z,96141.00
2022-08-14T22:24:53.513Z,96136.00
2022-08-14T22:30:04.098Z,96133.00
2022-08-14T22:35:09.259Z,96151.00
2022-08-14T22:40:48.395Z,96143.00
2022-08-14T22:46:14.965Z,96145.00
2022-08-14T22:51:22.826Z,96150.00
2022-08-14T22:56:30.118Z,96143.00
2022-08-14T23:01:55.763Z,96156.00
2022-08-14T23:07:03.096Z,96152.00
2022-08-14T23:12:27.658Z,96152.00
2022-08-14T23:17:38.970Z,96159.00
2022-08-14T23:22:42.242Z,96155.00
2022-08-14T23:28:02.669Z,96146.00
2022-08-14T23:33:04.723Z,96135.00
2022-08-14T23:38:05.613Z,96123.00
2022-08-14T23:43:14.801Z,96119.00
2022-08-14T23:48:24.819Z,96119.00
2022-08-14T23:53:48.794Z,96121.00
2022-08-14T23:58:52.873Z,96100.00
